Latest Coastal Weather Observations for Cape Grim

IDT60701

Issued at 4:32 am EDT Sunday 25 October 2020 (issued every 10 minutes, with the page automatically refreshed every 10 minutes)

About coastal observations | Map of coastal stations | Coastal observations for TAS | Marine services | Other Formats
Station Details ID: 091331 Name: CAPE GRIM Lat: -40.68 Lon: 144.69 Height: 86.0 m
Data from the previous 72 hours. | See also: Recent months at Cape Grim
Date/Time
EDT
Wind Sea
Height
m
Swell Vis
km
Cloud Weather Temp
°C
Press
MSL
hPa
Rain since
9am
mm
Dir  Spd
kts
Gust
kts
Height
m
Period
s
Dir
25/04:30am S 17 23 - - - - - Clear - 6.1 1017.6 0.2
25/04:00am S 20 28 - - - - - Partly cloudy - 6.7 1017.0 0.2
25/03:32am S 19 29 - - - - - Partly cloudy - 6.8 1016.8 0.2
25/03:30am S 18 25 - - - - - Partly cloudy - 6.7 1016.8 0.2
25/03:00am S 18 28 - - - - - Partly cloudy - 6.9 1016.2 0.2
25/02:38am S 19 29 - - - - - - - 7.5 1015.8 0.2
25/02:30am S 18 27 - - - - - - - 7.4 1015.9 0.2
25/02:00am S 24 37 - - - - - - - 7.8 1015.6 0.2
25/01:35am S 23 33 - - - - - Partly cloudy - 7.8 1015.4 0.2
25/01:30am S 22 30 - - - - - Partly cloudy - 7.7 1015.5 0.2
25/01:06am SSW 25 35 - - - - - Partly cloudy - 7.6 1015.3 0.2
25/01:00am SSW 28 35 - - - - - Partly cloudy - 7.9 1015.1 0.2
25/12:54am SSW 28 37 - - - - - Partly cloudy - 8.0 1015.1 0.2
25/12:39am S 20 32 - - - - - Partly cloudy - 8.1 1014.9 0.2
25/12:30am S 21 28 - - - - - Partly cloudy - 7.8 1014.9 0.2
25/12:00am S 21 29 - - - - - Partly cloudy - 8.0 1014.6 0.2
 
Date/Time
EDT
Wind Sea
Height
m
Swell Vis
km
Cloud Weather Temp
°C
Press
MSL
hPa
Rain since
9am
mm
Dir  Spd
kts
Gust
kts
Height
m
Period
s
Dir
24/11:30pm S 24 35 - - - - - Partly cloudy - 7.8 1014.3 0.2
24/11:01pm SSW 27 37 - - - - - Partly cloudy - 7.6 1013.8 0.2
24/11:00pm SSW 26 35 - - - - - Partly cloudy - 8.2 1013.7 0.2
24/10:32pm SSW 24 34 - - - - - Partly cloudy - 8.6 1013.6 0.0
24/10:30pm SSW 25 34 - - - - - Partly cloudy - 8.7 1013.6 0.0
24/10:00pm SSW 23 31 - - - - - Partly cloudy - 8.5 1013.3 0.0
24/09:30pm S 21 31 - - - - - Partly cloudy - 7.9 1012.8 0.0
24/09:00pm SSW 23 33 - - - - - Cloudy - 9.2 1012.0 0.0
24/08:42pm SSW 26 36 - - - - - Partly cloudy - 8.5 1011.6 0.0
24/08:30pm SSW 25 33 - - - - - Partly cloudy - 8.7 1011.2 0.0
24/08:01pm SSW 26 36 - - - - - Partly cloudy - 9.0 1010.6 0.0
24/08:00pm SSW 27 36 - - - - - Partly cloudy - 9.0 1010.6 0.0
24/07:46pm SW 20 33 - - - - - Partly cloudy - 10.0 1010.2 0.0
24/07:30pm SW 22 28 - - - - - Partly cloudy - 9.4 1010.1 0.0
24/07:00pm SW 28 38 - - - - - Partly cloudy - 9.7 1009.6 0.0
24/06:46pm SW 27 37 - - - - - Partly cloudy - 10.0 1009.4 0.0
24/06:30pm SW 23 31 - - - - - Partly cloudy - 9.9 1009.3 0.0
24/06:00pm SW 24 29 - - - - - Cloudy - 9.9 1008.9 0.0
24/05:40pm SW 25 39 - - - - - Partly cloudy - 10.3 1008.6 0.0
24/05:30pm SW 25 31 - - - - - Partly cloudy - 10.5 1008.6 0.0
24/05:00pm SW 26 33 - - - - - Partly cloudy - 10.2 1008.4 0.0
24/04:30pm SW 25 32 - - - - - Partly cloudy - 11.7 1008.1 0.0
24/04:05pm SW 21 31 - - - - - Partly cloudy - 11.6 1007.9 0.0
24/04:00pm SW 23 29 - - - - - Partly cloudy - 11.8 1008.0 0.0
24/03:30pm SW 24 30 - - - - - Partly cloudy - 12.0 1008.0 0.0
24/03:00pm SW 24 30 - - - - - Mostly clear - 11.5 1008.0 0.0
24/02:30pm SW 27 33 - - - - - Partly cloudy - 11.6 1007.8 0.0
24/02:00pm SW 29 36 - - - - - Partly cloudy - 11.2 1007.6 0.0
24/01:30pm SW 29 35 - - - - - Partly cloudy - 11.4 1007.2 0.0
24/01:00pm SW 28 33 - - - - - Partly cloudy - 11.5 1006.9 0.0
24/12:30pm SW 28 34 - - - - - Partly cloudy - 11.4 1006.6 0.0
24/12:00pm SW 28 35 - - - - - Mostly cloudy - 11.3 1006.4 0.0
24/11:30am SW 25 31 - - - - - Partly cloudy - 11.2 1006.4 0.0
24/11:00am SW 25 31 - - - - - Partly cloudy - 11.6 1006.1 0.0
24/10:30am SW 27 39 - - - - - Partly cloudy - 10.3 1006.0 0.0
24/10:27am SW 29 39 - - - - - Partly cloudy - 9.9 1005.9 0.0
24/10:21am SW 27 39 - - - - - Partly cloudy - 10.1 1005.9 0.0
24/10:05am SSW 22 33 - - - - - Partly cloudy - 11.0 1005.6 0.0
24/10:00am SSW 21 28 - - - - - Partly cloudy - 11.0 1005.5 0.0
24/09:30am SW 21 30 - - - - - Partly cloudy - 10.8 1005.4 0.0
24/09:00am SW 26 32 - - - - - Mostly clear - 10.6 1005.2 4.6
24/08:30am SW 23 28 - - - - - Partly cloudy - 11.3 1005.1 4.6
24/08:00am SW 22 28 - - - - - Partly cloudy - 11.3 1004.9 4.6
24/07:30am SW 22 27 - - - - - - - 10.9 1004.7 4.6
24/07:00am SW 23 28 - - - - - - - 10.9 1004.6 4.6
24/06:30am SW 21 25 - - - - - Partly cloudy - 10.9 1004.5 4.6
24/06:00am SW 23 28 - - - - - Mostly cloudy - 10.9 1004.2 4.6
24/05:30am SW 23 29 - - - - - Partly cloudy - 10.8 1004.2 4.6
24/05:08am SW 22 27 - - - - - Partly cloudy - 11.1 1004.2 4.6
24/05:00am SW 22 28 - - - - - Partly cloudy - 11.2 1004.0 4.6
24/04:55am SW 22 28 - - - - - Partly cloudy - 11.2 1004.1 4.6
24/04:30am SW 18 22 - - - - - Partly cloudy - 11.4 1004.1 4.6
24/04:00am SW 18 23 - - - - - Partly cloudy - 11.3 1004.3 4.6
24/03:30am SSW 13 19 - - - - - Partly cloudy - 11.4 1004.2 4.6
24/03:00am SSW 13 19 - - - - - Cloudy - 11.4 1003.9 4.6
24/02:47am SW 14 20 - - - - - Partly cloudy - 11.5 1004.0 4.6
24/02:30am SSW 14 19 - - - - - Partly cloudy - 11.6 1004.1 4.6
24/02:29am SSW 14 19 - - - - - Partly cloudy - 11.6 1004.1 4.6
24/02:00am SSW 13 16 - - - - - Partly cloudy - 11.5 1004.5 4.6
24/01:30am SSW 11 14 - - - - - Partly cloudy - 11.7 1004.8 4.4
24/01:21am SSW 10 13 - - - - - Partly cloudy - 11.6 1004.8 4.4
24/01:11am SSW 10 15 - - - - - Partly cloudy - 11.7 1005.0 4.4
24/01:00am SW 11 15 - - - - - Partly cloudy - 11.6 1005.0 4.4
24/12:39am SW 11 15 - - - - - Partly cloudy - 11.6 1005.3 4.4
24/12:30am SSW 10 16 - - - - - Partly cloudy - 11.2 1005.3 4.4
24/12:00am SW 13 16 - - - - - Cloudy Rain 11.3 1005.5 4.2
 
Date/Time
EDT
Wind Sea
Height
m
Swell Vis
km
Cloud Weather Temp
°C
Press
MSL
hPa
Rain since
9am
mm
Dir  Spd
kts
Gust
kts
Height
m
Period
s
Dir
23/11:30pm SW 8 10 - - - - - Cloudy - 11.7 1005.7 3.8
23/11:00pm NNW 4 9 - - - - - Cloudy - 11.5 1006.1 3.4
23/10:33pm NNW 4 6 - - - - - Partly cloudy - 11.5 1006.3 3.2
23/10:30pm NNW 4 6 - - - - - Partly cloudy - 11.4 1006.4 3.2
23/10:00pm NNW 4 5 - - - - - Cloudy - 11.4 1006.7 3.2
23/09:30pm NNW 4 7 - - - - - Cloudy - 11.4 1006.6 3.0
23/09:00pm NNW 4 5 - - - - - Cloudy Recent precip. 11.2 1006.7 2.8
23/08:30pm CALM 0 0 - - - - - Cloudy - 11.3 1006.6 2.6
23/08:00pm CALM 0 4 - - - - - Cloudy - 11.3 1006.5 2.2
23/07:30pm CALM 0 0 - - - - - Cloudy - 11.2 1006.5 2.2
23/07:00pm NNW 4 5 - - - - - Partly cloudy - 11.8 1006.5 2.0
23/06:30pm NNW 3 4 - - - - - Cloudy - 12.0 1006.4 1.8
23/06:00pm NNW 4 5 - - - - - Cloudy - 12.2 1006.2 1.8
23/05:30pm NNW 3 4 - - - - - Cloudy - 12.3 1006.3 1.8
23/05:00pm NNW 4 5 - - - - - Cloudy - 12.3 1006.5 1.8
23/04:30pm NNW 4 5 - - - - - Cloudy - 12.6 1006.5 1.8
23/04:00pm NNW 4 5 - - - - - Cloudy - 12.9 1006.6 1.8
23/03:30pm NNW 3 4 - - - - - Partly cloudy - 13.4 1007.0 1.8
23/03:00pm NNW 7 9 - - - - - Cloudy Recent precip. 12.7 1007.8 1.8
23/02:30pm N 7 8 - - - - - Partly cloudy - 13.2 1007.9 1.6
23/02:00pm NNW 1 4 - - - - - Partly cloudy - 14.3 1007.7 1.6
23/01:30pm CALM 0 0 - - - - - Partly cloudy - 13.4 1007.8 1.6
23/01:00pm NNW 2 5 - - - - - Partly cloudy - 13.2 1008.1 1.6
23/12:30pm NNW 4 6 - - - - - Partly cloudy - 13.0 1008.8 1.6
23/12:00pm NNW 7 8 - - - - - Cloudy - 12.8 1009.4 1.6
23/11:34am NNW 7 9 - - - - - Partly cloudy - 12.5 1009.8 1.6
23/11:30am NNW 8 10 - - - - - Partly cloudy - 12.5 1010.0 1.6
23/11:14am N 8 11 - - - - - Partly cloudy - 12.2 1010.1 1.6
23/11:13am N 8 11 - - - - - Partly cloudy - 12.2 1010.1 1.6
23/11:01am N 8 10 - - - - - Partly cloudy - 12.6 1009.9 1.6
23/11:00am N 8 10 - - - - - Partly cloudy - 12.5 1009.9 1.6
23/10:56am N 9 11 - - - - - Partly cloudy - 12.7 1010.0 1.6
23/10:30am NE 12 15 - - - - - Partly cloudy - 12.5 1009.8 1.0
23/10:00am NE 15 19 - - - - - Cloudy - 12.4 1009.5 0.8
23/09:30am NE 15 18 - - - - - Partly cloudy - 12.1 1009.8 0.2
23/09:00am NE 15 18 - - - - - Cloudy Recent precip. 12.0 1010.1 2.0
23/08:30am ENE 13 17 - - - - - Partly cloudy - 12.0 1010.2 1.6
23/08:00am ENE 12 17 - - - - - Partly cloudy - 11.8 1010.1 0.8
23/07:30am ENE 14 17 - - - - - Cloudy - 11.8 1010.2 0.2
23/07:00am ENE 13 16 - - - - - Partly cloudy - 11.8 1010.3 0.0
23/06:30am ENE 14 17 - - - - - Partly cloudy - 11.6 1010.1 0.0
23/06:26am ENE 14 17 - - - - - Partly cloudy - 11.6 1010.1 0.0
23/06:00am ENE 13 15 - - - - - Cloudy - 11.6 1010.3 0.0
23/05:39am NE 13 17 - - - - - Partly cloudy - 11.6 1010.2 0.0
23/05:30am ENE 14 16 - - - - - Partly cloudy - 11.6 1010.2 0.0
23/05:27am ENE 13 16 - - - - - Partly cloudy - 11.6 1010.1 0.0
23/05:02am ENE 13 15 - - - - - Partly cloudy - 11.6 1010.1 0.0
23/05:00am ENE 13 16 - - - - - Partly cloudy - 11.6 1010.1 0.0
23/04:47am ENE 12 16 - - - - - Partly cloudy - 11.6 1010.1 0.0
23/04:34am ENE 13 17 - - - - - Partly cloudy - 11.5 1010.1 0.0
23/04:30am ENE 13 16 - - - - - Partly cloudy - 11.5 1010.2 0.0
23/04:00am NE 12 14 - - - - - Partly cloudy - 11.5 1010.8 0.0
23/03:30am ENE 11 14 - - - - - Partly cloudy - 11.3 1010.8 0.0
23/03:22am ENE 11 14 - - - - - Partly cloudy - 11.2 1010.7 0.0
23/03:00am NE 11 13 - - - - - Cloudy - 11.0 1010.8 0.0
23/02:30am NE 11 13 - - - - - Partly cloudy - 11.0 1011.1 0.0
23/02:00am NE 13 16 - - - - - Partly cloudy - 11.0 1011.7 0.0
23/01:30am NE 13 17 - - - - - Cloudy - 11.3 1012.4 0.0
23/01:07am NE 13 15 - - - - - Cloudy - 11.4 1013.1 0.0
23/01:00am NE 12 15 - - - - - Partly cloudy - 11.3 1013.4 0.0
23/12:54am NE 11 15 - - - - - Partly cloudy - 11.3 1013.3 0.0
23/12:30am NE 9 11 - - - - - Partly cloudy - 11.2 1013.4 0.0
23/12:00am ENE 7 9 - - - - - Cloudy - 11.4 1014.0 0.0
 
Date/Time
EDT
Wind Sea
Height
m
Swell Vis
km
Cloud Weather Temp
°C
Press
MSL
hPa
Rain since
9am
mm
Dir  Spd
kts
Gust
kts
Height
m
Period
s
Dir
22/11:30pm ENE 9 12 - - - - - Partly cloudy - 10.9 1013.9 0.0
22/11:25pm NE 10 13 - - - - - Partly cloudy - 11.0 1014.0 0.0
22/11:00pm ENE 13 15 - - - - - Partly cloudy - 11.1 1013.9 0.0
22/10:32pm ENE 11 13 - - - - - Partly cloudy - 11.1 1014.2 0.0
22/10:30pm ENE 11 13 - - - - - Partly cloudy - 11.1 1014.3 0.0
22/10:00pm ENE 11 14 - - - - - Partly cloudy - 11.0 1014.7 0.0
22/09:30pm E 9 10 - - - - - Partly cloudy - 10.8 1014.7 0.0
22/09:00pm ENE 9 10 - - - - - Cloudy - 11.0 1014.7 0.0
22/08:30pm NNE 6 6 - - - - - - - 11.0 1014.5 0.0
22/08:00pm NNE 6 7 - - - - - - - 11.4 1014.4 0.0
22/07:30pm NNE 5 6 - - - - - - - 11.6 1014.2 0.0
22/07:00pm CALM 0 0 - - - - - - - 13.0 1014.1 0.0
22/06:30pm NW 2 5 - - - - - - - 13.2 1014.1 0.0
22/06:00pm NW 5 7 - - - - - Partly cloudy - 13.1 1014.4 0.0
22/05:30pm N 3 5 - - - - - - - 13.7 1014.7 0.0
22/05:00pm NNW 3 5 - - - - - - - 14.9 1014.6 0.0
22/04:30pm NNE 5 8 - - - - - - - 15.2 1014.8 0.0
22/04:00pm SW 9 13 - - - - - - - 14.4 1014.4 0.0
22/03:30pm SW 8 12 - - - - - - - 14.1 1014.7 0.0
22/03:00pm SSW 10 13 - - - - - Mostly clear - 13.6 1015.1 0.0
22/02:30pm SW 9 13 - - - - - Partly cloudy - 14.0 1015.5 0.0
22/02:00pm SW 9 11 - - - - - Partly cloudy - 13.3 1015.6 0.0
22/01:30pm SW 8 11 - - - - - Partly cloudy - 13.8 1015.5 0.0
22/01:00pm SW 8 11 - - - - - Partly cloudy - 13.5 1015.8 0.0
22/12:30pm SW 9 12 - - - - - Partly cloudy - 13.8 1016.1 0.0
22/12:00pm SW 9 13 - - - - - Cloudy - 13.2 1016.3 0.0
22/11:30am SW 10 13 - - - - - Partly cloudy - 12.9 1016.5 0.0
22/11:00am SW 7 9 - - - - - Partly cloudy - 13.7 1016.4 0.0
22/10:30am SSW 6 8 - - - - - Partly cloudy - 13.0 1016.5 0.0
22/10:00am SSW 7 9 - - - - - - - 13.4 1016.5 0.0
22/09:30am SSW 9 11 - - - - - - - 12.5 1016.6 0.0
22/09:00am SSW 8 11 - - - - - - - 12.2 1016.6 0.0
22/08:30am SSW 8 10 - - - - - - - 12.1 1016.6 0.0
22/08:00am SSW 11 15 - - - - - - - 11.0 1016.3 0.0
22/07:30am SSW 13 16 - - - - - - - 11.1 1015.9 0.0
22/07:00am S 10 14 - - - - - - - 10.6 1015.6 0.0
22/06:30am S 12 16 - - - - - - - 10.5 1015.4 0.0
22/06:00am S 14 20 - - - - - - - 10.6 1015.0 0.0
22/05:30am S 13 18 - - - - - - - 10.7 1015.1 0.0
22/05:00am SSW 16 21 - - - - - Partly cloudy - 10.9 1015.3 0.0

Other formats

Comma delimited format used in spreadsheet applications
http://www.bom.gov.au/fwo/IDT60701/IDT60701.95954.axf

JavaScript Object Notation format (JSON) in row-major order
http://www.bom.gov.au/fwo/IDT60701/IDT60701.95954.json

Data quality

Most of these data are generated automatically and are frequently updated. Quality checks on data are not normally performed. It is possible for incorrect values to appear. Refer to information at About Latest Weather Observations and please check the disclaimer before using these data.